sensor_id;sensor_type;location;lat;lon;timestamp;P1;durP1;ratioP1;P2;durP2;ratioP2
16954;SDS011;8594;52.052;8.354;2022-08-24T00:01:26;3.07;;;1.80;;
16954;SDS011;8594;52.052;8.354;2022-08-24T00:03:54;6.77;;;2.00;;
16954;SDS011;8594;52.052;8.354;2022-08-24T00:06:23;5.93;;;2.00;;
16954;SDS011;8594;52.052;8.354;2022-08-24T00:08:53;2.47;;;1.60;;
16954;SDS011;8594;52.052;8.354;2022-08-24T00:11:22;5.43;;;1.80;;
16954;SDS011;8594;52.052;8.354;2022-08-24T00:13:49;3.50;;;1.67;;
16954;SDS011;8594;52.052;8.354;2022-08-24T00:16:17;3.40;;;1.93;;
16954;SDS011;8594;52.052;8.354;2022-08-24T00:18:44;11.20;;;2.47;;
16954;SDS011;8594;52.052;8.354;2022-08-24T00:21:13;8.17;;;2.20;;
16954;SDS011;8594;52.052;8.354;2022-08-24T00:23:40;2.63;;;1.70;;
16954;SDS011;8594;52.052;8.354;2022-08-24T00:26:08;2.50;;;1.90;;
16954;SDS011;8594;52.052;8.354;2022-08-24T00:28:35;5.97;;;1.80;;
16954;SDS011;8594;52.052;8.354;2022-08-24T00:31:02;4.67;;;2.30;;
16954;SDS011;8594;52.052;8.354;2022-08-24T00:33:29;3.63;;;2.03;;
16954;SDS011;8594;52.052;8.354;2022-08-24T00:35:56;4.77;;;2.00;;
16954;SDS011;8594;52.052;8.354;2022-08-24T00:38:23;5.43;;;1.90;;
16954;SDS011;8594;52.052;8.354;2022-08-24T00:40:50;5.43;;;2.37;;
16954;SDS011;8594;52.052;8.354;2022-08-24T00:43:19;5.37;;;1.73;;
16954;SDS011;8594;52.052;8.354;2022-08-24T00:45:50;4.37;;;2.10;;
16954;SDS011;8594;52.052;8.354;2022-08-24T00:48:43;3.40;;;2.00;;
16954;SDS011;8594;52.052;8.354;2022-08-24T00:51:17;3.17;;;1.80;;
16954;SDS011;8594;52.052;8.354;2022-08-24T00:53:50;3.47;;;1.90;;
16954;SDS011;8594;52.052;8.354;2022-08-24T00:56:23;3.93;;;1.90;;
16954;SDS011;8594;52.052;8.354;2022-08-24T00:58:56;3.53;;;1.90;;
16954;SDS011;8594;52.052;8.354;2022-08-24T01:01:28;4.30;;;2.23;;
16954;SDS011;8594;52.052;8.354;2022-08-24T01:03:59;4.80;;;2.00;;
16954;SDS011;8594;52.052;8.354;2022-08-24T01:06:27;7.50;;;2.03;;
16954;SDS011;8594;52.052;8.354;2022-08-24T01:08:56;6.23;;;2.00;;
16954;SDS011;8594;52.052;8.354;2022-08-24T01:11:24;5.47;;;1.90;;
16954;SDS011;8594;52.052;8.354;2022-08-24T01:13:56;3.53;;;2.03;;
16954;SDS011;8594;52.052;8.354;2022-08-24T01:16:23;3.70;;;1.90;;
16954;SDS011;8594;52.052;8.354;2022-08-24T01:19:10;3.80;;;1.83;;
16954;SDS011;8594;52.052;8.354;2022-08-24T01:21:49;4.67;;;1.90;;
16954;SDS011;8594;52.052;8.354;2022-08-24T01:24:34;7.03;;;2.27;;
16954;SDS011;8594;52.052;8.354;2022-08-24T01:27:02;4.27;;;1.93;;
16954;SDS011;8594;52.052;8.354;2022-08-24T01:29:33;5.17;;;1.80;;
16954;SDS011;8594;52.052;8.354;2022-08-24T01:32:04;4.80;;;2.03;;
16954;SDS011;8594;52.052;8.354;2022-08-24T01:34:31;3.33;;;1.90;;
16954;SDS011;8594;52.052;8.354;2022-08-24T01:36:58;5.97;;;2.20;;
16954;SDS011;8594;52.052;8.354;2022-08-24T01:39:28;4.43;;;1.97;;
16954;SDS011;8594;52.052;8.354;2022-08-24T01:41:59;7.67;;;2.00;;
16954;SDS011;8594;52.052;8.354;2022-08-24T01:44:28;4.70;;;2.33;;
16954;SDS011;8594;52.052;8.354;2022-08-24T01:46:58;3.67;;;1.80;;
16954;SDS011;8594;52.052;8.354;2022-08-24T01:49:28;3.53;;;2.10;;
16954;SDS011;8594;52.052;8.354;2022-08-24T01:51:59;4.23;;;1.70;;
16954;SDS011;8594;52.052;8.354;2022-08-24T01:54:26;2.70;;;1.87;;
16954;SDS011;8594;52.052;8.354;2022-08-24T01:56:54;6.37;;;2.17;;
16954;SDS011;8594;52.052;8.354;2022-08-24T01:59:23;3.67;;;2.17;;
16954;SDS011;8594;52.052;8.354;2022-08-24T02:01:51;4.10;;;2.07;;
16954;SDS011;8594;52.052;8.354;2022-08-24T02:04:23;5.87;;;2.17;;
16954;SDS011;8594;52.052;8.354;2022-08-24T02:06:49;3.30;;;1.97;;
16954;SDS011;8594;52.052;8.354;2022-08-24T02:09:17;4.73;;;2.20;;
16954;SDS011;8594;52.052;8.354;2022-08-24T02:11:45;7.07;;;2.10;;
16954;SDS011;8594;52.052;8.354;2022-08-24T02:14:13;6.50;;;2.13;;
16954;SDS011;8594;52.052;8.354;2022-08-24T02:16:41;3.70;;;2.10;;
16954;SDS011;8594;52.052;8.354;2022-08-24T02:19:08;4.70;;;2.10;;
16954;SDS011;8594;52.052;8.354;2022-08-24T02:21:35;4.20;;;2.27;;
16954;SDS011;8594;52.052;8.354;2022-08-24T02:24:02;4.07;;;2.07;;
16954;SDS011;8594;52.052;8.354;2022-08-24T02:26:31;3.90;;;2.17;;
16954;SDS011;8594;52.052;8.354;2022-08-24T02:28:58;6.03;;;2.00;;
16954;SDS011;8594;52.052;8.354;2022-08-24T02:31:25;3.20;;;1.93;;
16954;SDS011;8594;52.052;8.354;2022-08-24T02:33:53;3.67;;;1.83;;
16954;SDS011;8594;52.052;8.354;2022-08-24T02:36:19;3.23;;;2.10;;
16954;SDS011;8594;52.052;8.354;2022-08-24T02:38:47;3.47;;;2.00;;
16954;SDS011;8594;52.052;8.354;2022-08-24T02:41:15;5.07;;;1.90;;
16954;SDS011;8594;52.052;8.354;2022-08-24T02:43:41;5.33;;;2.50;;
16954;SDS011;8594;52.052;8.354;2022-08-24T02:46:14;3.60;;;2.00;;
16954;SDS011;8594;52.052;8.354;2022-08-24T02:48:43;3.17;;;2.00;;
16954;SDS011;8594;52.052;8.354;2022-08-24T02:51:18;2.97;;;2.20;;
16954;SDS011;8594;52.052;8.354;2022-08-24T02:53:46;5.70;;;2.00;;
16954;SDS011;8594;52.052;8.354;2022-08-24T02:56:13;4.97;;;2.40;;
16954;SDS011;8594;52.052;8.354;2022-08-24T02:58:41;4.83;;;1.87;;
16954;SDS011;8594;52.052;8.354;2022-08-24T03:01:08;4.10;;;2.40;;
16954;SDS011;8594;52.052;8.354;2022-08-24T03:03:35;5.47;;;2.07;;
16954;SDS011;8594;52.052;8.354;2022-08-24T03:06:03;5.13;;;1.97;;
16954;SDS011;8594;52.052;8.354;2022-08-24T03:08:33;5.23;;;2.20;;
16954;SDS011;8594;52.052;8.354;2022-08-24T03:11:01;2.67;;;1.70;;
16954;SDS011;8594;52.052;8.354;2022-08-24T03:13:31;3.67;;;2.20;;
16954;SDS011;8594;52.052;8.354;2022-08-24T03:15:59;3.80;;;1.90;;
16954;SDS011;8594;52.052;8.354;2022-08-24T03:18:26;4.87;;;2.30;;
16954;SDS011;8594;52.052;8.354;2022-08-24T03:20:53;3.90;;;2.00;;
16954;SDS011;8594;52.052;8.354;2022-08-24T03:23:21;5.63;;;2.20;;
16954;SDS011;8594;52.052;8.354;2022-08-24T03:25:50;7.07;;;2.30;;
16954;SDS011;8594;52.052;8.354;2022-08-24T03:28:17;6.20;;;2.37;;
16954;SDS011;8594;52.052;8.354;2022-08-24T03:30:46;3.73;;;2.10;;
16954;SDS011;8594;52.052;8.354;2022-08-24T03:33:13;8.47;;;2.13;;
16954;SDS011;8594;52.052;8.354;2022-08-24T03:35:40;4.70;;;1.97;;
16954;SDS011;8594;52.052;8.354;2022-08-24T03:38:07;11.03;;;2.20;;
16954;SDS011;8594;52.052;8.354;2022-08-24T03:40:34;4.33;;;2.00;;
16954;SDS011;8594;52.052;8.354;2022-08-24T03:43:03;3.63;;;1.97;;
16954;SDS011;8594;52.052;8.354;2022-08-24T03:45:29;3.07;;;2.10;;
16954;SDS011;8594;52.052;8.354;2022-08-24T03:47:56;3.37;;;2.20;;
16954;SDS011;8594;52.052;8.354;2022-08-24T03:50:23;5.97;;;2.20;;
16954;SDS011;8594;52.052;8.354;2022-08-24T03:52:51;4.43;;;2.10;;
16954;SDS011;8594;52.052;8.354;2022-08-24T03:55:18;7.23;;;2.10;;
16954;SDS011;8594;52.052;8.354;2022-08-24T03:57:45;4.53;;;2.10;;
16954;SDS011;8594;52.052;8.354;2022-08-24T04:00:13;3.33;;;2.03;;
16954;SDS011;8594;52.052;8.354;2022-08-24T04:02:42;6.17;;;2.40;;
16954;SDS011;8594;52.052;8.354;2022-08-24T04:05:09;5.07;;;2.37;;
16954;SDS011;8594;52.052;8.354;2022-08-24T04:07:37;12.17;;;2.50;;
16954;SDS011;8594;52.052;8.354;2022-08-24T04:10:04;4.97;;;2.10;;
16954;SDS011;8594;52.052;8.354;2022-08-24T04:12:32;4.03;;;2.03;;
16954;SDS011;8594;52.052;8.354;2022-08-24T04:14:59;2.57;;;1.80;;
16954;SDS011;8594;52.052;8.354;2022-08-24T04:17:27;6.23;;;2.00;;
16954;SDS011;8594;52.052;8.354;2022-08-24T04:19:54;4.00;;;2.17;;
16954;SDS011;8594;52.052;8.354;2022-08-24T04:22:24;3.77;;;1.97;;
16954;SDS011;8594;52.052;8.354;2022-08-24T04:24:52;3.60;;;2.23;;
16954;SDS011;8594;52.052;8.354;2022-08-24T04:27:20;4.63;;;2.43;;
16954;SDS011;8594;52.052;8.354;2022-08-24T04:29:48;4.90;;;2.30;;
16954;SDS011;8594;52.052;8.354;2022-08-24T04:32:15;2.93;;;1.97;;
16954;SDS011;8594;52.052;8.354;2022-08-24T04:34:43;6.87;;;2.27;;
16954;SDS011;8594;52.052;8.354;2022-08-24T04:37:11;5.10;;;2.20;;
16954;SDS011;8594;52.052;8.354;2022-08-24T04:39:38;6.37;;;2.77;;
16954;SDS011;8594;52.052;8.354;2022-08-24T04:42:07;6.17;;;2.30;;
16954;SDS011;8594;52.052;8.354;2022-08-24T04:44:34;3.20;;;2.20;;
16954;SDS011;8594;52.052;8.354;2022-08-24T04:47:01;6.53;;;2.07;;
16954;SDS011;8594;52.052;8.354;2022-08-24T04:49:28;3.80;;;1.90;;
16954;SDS011;8594;52.052;8.354;2022-08-24T04:51:56;6.33;;;2.23;;
16954;SDS011;8594;52.052;8.354;2022-08-24T04:54:23;10.23;;;2.30;;
16954;SDS011;8594;52.052;8.354;2022-08-24T04:56:51;5.47;;;2.27;;
16954;SDS011;8594;52.052;8.354;2022-08-24T04:59:18;8.23;;;2.20;;
16954;SDS011;8594;52.052;8.354;2022-08-24T05:01:45;10.53;;;2.53;;
16954;SDS011;8594;52.052;8.354;2022-08-24T05:04:12;12.30;;;3.07;;
16954;SDS011;8594;52.052;8.354;2022-08-24T05:06:39;18.90;;;3.67;;
16954;SDS011;8594;52.052;8.354;2022-08-24T05:09:08;14.77;;;3.10;;
16954;SDS011;8594;52.052;8.354;2022-08-24T05:11:35;17.33;;;2.57;;
16954;SDS011;8594;52.052;8.354;2022-08-24T05:14:04;5.67;;;2.37;;
16954;SDS011;8594;52.052;8.354;2022-08-24T05:16:32;7.47;;;2.53;;
16954;SDS011;8594;52.052;8.354;2022-08-24T05:19:01;11.30;;;2.53;;
16954;SDS011;8594;52.052;8.354;2022-08-24T05:21:31;7.50;;;2.67;;
16954;SDS011;8594;52.052;8.354;2022-08-24T05:23:58;5.60;;;2.60;;
16954;SDS011;8594;52.052;8.354;2022-08-24T05:26:27;9.43;;;2.80;;
16954;SDS011;8594;52.052;8.354;2022-08-24T05:28:57;8.33;;;2.70;;
16954;SDS011;8594;52.052;8.354;2022-08-24T05:31:26;7.17;;;2.40;;
16954;SDS011;8594;52.052;8.354;2022-08-24T05:33:56;7.03;;;2.60;;
16954;SDS011;8594;52.052;8.354;2022-08-24T05:36:25;6.57;;;2.47;;
16954;SDS011;8594;52.052;8.354;2022-08-24T05:38:55;12.97;;;3.40;;
16954;SDS011;8594;52.052;8.354;2022-08-24T05:41:27;8.10;;;2.20;;
16954;SDS011;8594;52.052;8.354;2022-08-24T05:43:55;6.33;;;2.50;;
16954;SDS011;8594;52.052;8.354;2022-08-24T05:46:22;5.00;;;2.10;;
16954;SDS011;8594;52.052;8.354;2022-08-24T05:48:48;3.37;;;2.23;;
16954;SDS011;8594;52.052;8.354;2022-08-24T05:51:15;5.23;;;2.47;;
16954;SDS011;8594;52.052;8.354;2022-08-24T05:53:42;4.37;;;2.13;;
16954;SDS011;8594;52.052;8.354;2022-08-24T05:56:10;3.10;;;2.07;;
16954;SDS011;8594;52.052;8.354;2022-08-24T05:58:41;4.50;;;2.30;;
16954;SDS011;8594;52.052;8.354;2022-08-24T06:01:08;5.00;;;2.40;;
16954;SDS011;8594;52.052;8.354;2022-08-24T06:03:39;5.67;;;2.60;;
16954;SDS011;8594;52.052;8.354;2022-08-24T06:06:07;7.60;;;2.40;;
16954;SDS011;8594;52.052;8.354;2022-08-24T06:08:35;3.80;;;2.23;;
16954;SDS011;8594;52.052;8.354;2022-08-24T06:11:04;6.37;;;2.13;;
16954;SDS011;8594;52.052;8.354;2022-08-24T06:13:31;4.80;;;2.20;;
16954;SDS011;8594;52.052;8.354;2022-08-24T06:16:05;4.17;;;2.40;;
16954;SDS011;8594;52.052;8.354;2022-08-24T06:18:35;4.00;;;2.20;;
16954;SDS011;8594;52.052;8.354;2022-08-24T06:21:03;5.60;;;2.17;;
16954;SDS011;8594;52.052;8.354;2022-08-24T06:23:32;8.07;;;2.00;;
16954;SDS011;8594;52.052;8.354;2022-08-24T06:26:00;5.57;;;2.00;;
16954;SDS011;8594;52.052;8.354;2022-08-24T06:28:45;8.53;;;2.27;;
16954;SDS011;8594;52.052;8.354;2022-08-24T06:31:13;6.10;;;2.07;;
16954;SDS011;8594;52.052;8.354;2022-08-24T06:33:41;3.30;;;2.00;;
16954;SDS011;8594;52.052;8.354;2022-08-24T06:36:07;7.27;;;2.23;;
16954;SDS011;8594;52.052;8.354;2022-08-24T06:38:34;3.90;;;2.20;;
16954;SDS011;8594;52.052;8.354;2022-08-24T06:41:02;2.40;;;2.00;;
16954;SDS011;8594;52.052;8.354;2022-08-24T06:43:28;2.87;;;1.93;;
16954;SDS011;8594;52.052;8.354;2022-08-24T06:45:56;4.53;;;1.90;;
16954;SDS011;8594;52.052;8.354;2022-08-24T06:48:25;3.03;;;1.93;;
16954;SDS011;8594;52.052;8.354;2022-08-24T06:50:54;3.10;;;1.90;;
16954;SDS011;8594;52.052;8.354;2022-08-24T06:53:21;5.25;;;2.03;;
16954;SDS011;8594;52.052;8.354;2022-08-24T06:55:49;4.22;;;2.00;;
16954;SDS011;8594;52.052;8.354;2022-08-24T06:58:18;5.75;;;2.65;;
16954;SDS011;8594;52.052;8.354;2022-08-24T07:00:46;9.20;;;2.35;;
16954;SDS011;8594;52.052;8.354;2022-08-24T07:03:13;6.78;;;2.50;;
16954;SDS011;8594;52.052;8.354;2022-08-24T07:05:49;5.35;;;2.40;;
16954;SDS011;8594;52.052;8.354;2022-08-24T07:08:16;6.63;;;2.00;;
16954;SDS011;8594;52.052;8.354;2022-08-24T07:10:44;3.33;;;2.00;;
16954;SDS011;8594;52.052;8.354;2022-08-24T07:13:11;3.47;;;2.05;;
16954;SDS011;8594;52.052;8.354;2022-08-24T07:15:38;3.08;;;2.05;;
16954;SDS011;8594;52.052;8.354;2022-08-24T07:18:06;4.72;;;1.85;;
16954;SDS011;8594;52.052;8.354;2022-08-24T07:20:36;6.40;;;1.88;;
16954;SDS011;8594;52.052;8.354;2022-08-24T07:23:05;3.65;;;2.00;;
16954;SDS011;8594;52.052;8.354;2022-08-24T07:25:32;5.45;;;1.80;;
16954;SDS011;8594;52.052;8.354;2022-08-24T07:27:59;3.85;;;1.85;;
16954;SDS011;8594;52.052;8.354;2022-08-24T07:30:27;4.57;;;2.08;;
16954;SDS011;8594;52.052;8.354;2022-08-24T07:32:55;5.03;;;1.92;;
16954;SDS011;8594;52.052;8.354;2022-08-24T07:35:23;6.55;;;2.00;;
16954;SDS011;8594;52.052;8.354;2022-08-24T07:37:52;4.20;;;2.10;;
16954;SDS011;8594;52.052;8.354;2022-08-24T07:40:22;5.00;;;2.20;;
16954;SDS011;8594;52.052;8.354;2022-08-24T07:42:51;2.97;;;1.70;;
16954;SDS011;8594;52.052;8.354;2022-08-24T07:45:20;5.97;;;2.00;;
16954;SDS011;8594;52.052;8.354;2022-08-24T07:47:47;5.85;;;2.20;;
16954;SDS011;8594;52.052;8.354;2022-08-24T07:50:15;4.65;;;2.10;;
16954;SDS011;8594;52.052;8.354;2022-08-24T07:52:44;5.50;;;2.10;;
16954;SDS011;8594;52.052;8.354;2022-08-24T07:55:11;4.35;;;2.05;;
16954;SDS011;8594;52.052;8.354;2022-08-24T07:57:41;7.35;;;2.20;;
16954;SDS011;8594;52.052;8.354;2022-08-24T08:00:10;3.55;;;2.20;;
16954;SDS011;8594;52.052;8.354;2022-08-24T08:02:40;6.80;;;2.08;;
16954;SDS011;8594;52.052;8.354;2022-08-24T08:05:10;5.38;;;2.20;;
16954;SDS011;8594;52.052;8.354;2022-08-24T08:07:38;4.43;;;1.90;;
16954;SDS011;8594;52.052;8.354;2022-08-24T08:10:06;3.75;;;2.10;;
16954;SDS011;8594;52.052;8.354;2022-08-24T08:12:35;7.57;;;2.30;;
16954;SDS011;8594;52.052;8.354;2022-08-24T08:15:04;8.07;;;2.17;;
16954;SDS011;8594;52.052;8.354;2022-08-24T08:17:33;3.15;;;2.08;;
16954;SDS011;8594;52.052;8.354;2022-08-24T08:20:01;3.60;;;2.30;;
16954;SDS011;8594;52.052;8.354;2022-08-24T08:22:29;5.40;;;2.33;;
16954;SDS011;8594;52.052;8.354;2022-08-24T08:25:14;4.88;;;1.90;;
16954;SDS011;8594;52.052;8.354;2022-08-24T08:27:42;4.32;;;2.30;;
16954;SDS011;8594;52.052;8.354;2022-08-24T08:30:10;4.93;;;2.00;;
16954;SDS011;8594;52.052;8.354;2022-08-24T08:32:39;5.85;;;2.45;;
16954;SDS011;8594;52.052;8.354;2022-08-24T08:35:06;5.45;;;2.13;;
16954;SDS011;8594;52.052;8.354;2022-08-24T08:37:34;3.20;;;1.92;;
16954;SDS011;8594;52.052;8.354;2022-08-24T08:40:01;5.15;;;2.30;;
16954;SDS011;8594;52.052;8.354;2022-08-24T08:45:29;5.15;;;2.40;;
16954;SDS011;8594;52.052;8.354;2022-08-24T08:48:44;7.72;;;2.67;;
16954;SDS011;8594;52.052;8.354;2022-08-24T08:55:08;3.63;;;2.40;;
16954;SDS011;8594;52.052;8.354;2022-08-24T08:57:55;5.80;;;2.78;;
16954;SDS011;8594;52.052;8.354;2022-08-24T09:00:42;3.92;;;2.50;;
16954;SDS011;8594;52.052;8.354;2022-08-24T09:03:28;4.13;;;2.50;;
16954;SDS011;8594;52.052;8.354;2022-08-24T09:06:16;7.35;;;2.22;;
16954;SDS011;8594;52.052;8.354;2022-08-24T09:09:24;5.32;;;2.50;;
16954;SDS011;8594;52.052;8.354;2022-08-24T09:12:14;5.63;;;2.63;;
16954;SDS011;8594;52.052;8.354;2022-08-24T09:15:06;3.35;;;2.42;;
16954;SDS011;8594;52.052;8.354;2022-08-24T09:18:02;3.22;;;2.10;;
16954;SDS011;8594;52.052;8.354;2022-08-24T09:20:46;6.25;;;2.90;;
16954;SDS011;8594;52.052;8.354;2022-08-24T09:23:29;4.53;;;2.60;;
16954;SDS011;8594;52.052;8.354;2022-08-24T09:26:15;4.60;;;2.30;;
16954;SDS011;8594;52.052;8.354;2022-08-24T09:28:53;7.70;;;2.63;;
16954;SDS011;8594;52.052;8.354;2022-08-24T09:31:41;8.60;;;2.97;;
16954;SDS011;8594;52.052;8.354;2022-08-24T09:34:34;4.65;;;2.40;;
16954;SDS011;8594;52.052;8.354;2022-08-24T09:37:16;6.50;;;2.40;;
16954;SDS011;8594;52.052;8.354;2022-08-24T09:40:02;5.00;;;2.83;;
16954;SDS011;8594;52.052;8.354;2022-08-24T09:42:58;6.47;;;2.50;;
16954;SDS011;8594;52.052;8.354;2022-08-24T09:46:01;5.15;;;2.40;;
16954;SDS011;8594;52.052;8.354;2022-08-24T09:52:21;4.95;;;2.38;;
16954;SDS011;8594;52.052;8.354;2022-08-24T09:55:34;8.48;;;2.85;;
16954;SDS011;8594;52.052;8.354;2022-08-24T09:58:41;3.13;;;2.10;;
16954;SDS011;8594;52.052;8.354;2022-08-24T10:01:27;4.18;;;2.20;;
16954;SDS011;8594;52.052;8.354;2022-08-24T10:07:01;3.83;;;2.38;;
16954;SDS011;8594;52.052;8.354;2022-08-24T10:09:48;6.03;;;2.67;;
16954;SDS011;8594;52.052;8.354;2022-08-24T10:12:42;7.63;;;2.60;;
16954;SDS011;8594;52.052;8.354;2022-08-24T10:15:25;6.45;;;2.50;;
16954;SDS011;8594;52.052;8.354;2022-08-24T10:18:12;5.45;;;2.55;;
16954;SDS011;8594;52.052;8.354;2022-08-24T10:21:01;5.88;;;2.70;;
16954;SDS011;8594;52.052;8.354;2022-08-24T10:23:48;7.07;;;2.63;;
16954;SDS011;8594;52.052;8.354;2022-08-24T10:26:33;4.85;;;2.60;;
16954;SDS011;8594;52.052;8.354;2022-08-24T10:29:21;4.88;;;2.92;;
16954;SDS011;8594;52.052;8.354;2022-08-24T10:32:13;5.55;;;2.50;;
16954;SDS011;8594;52.052;8.354;2022-08-24T10:35:02;4.90;;;2.95;;
16954;SDS011;8594;52.052;8.354;2022-08-24T10:37:40;6.88;;;3.10;;
16954;SDS011;8594;52.052;8.354;2022-08-24T10:40:45;6.22;;;3.05;;
16954;SDS011;8594;52.052;8.354;2022-08-24T10:43:37;5.80;;;2.70;;
16954;SDS011;8594;52.052;8.354;2022-08-24T10:46:35;8.63;;;3.00;;
16954;SDS011;8594;52.052;8.354;2022-08-24T10:52:47;8.27;;;3.15;;
16954;SDS011;8594;52.052;8.354;2022-08-24T10:55:37;4.95;;;2.10;;
16954;SDS011;8594;52.052;8.354;2022-08-24T10:58:12;7.90;;;3.00;;
16954;SDS011;8594;52.052;8.354;2022-08-24T11:01:24;5.88;;;2.47;;
16954;SDS011;8594;52.052;8.354;2022-08-24T11:03:57;7.50;;;3.10;;
16954;SDS011;8594;52.052;8.354;2022-08-24T11:06:31;6.10;;;2.50;;
16954;SDS011;8594;52.052;8.354;2022-08-24T11:09:04;6.47;;;3.08;;
16954;SDS011;8594;52.052;8.354;2022-08-24T11:11:35;7.70;;;2.83;;
16954;SDS011;8594;52.052;8.354;2022-08-24T11:14:06;8.35;;;3.15;;
16954;SDS011;8594;52.052;8.354;2022-08-24T11:16:48;7.47;;;3.20;;
16954;SDS011;8594;52.052;8.354;2022-08-24T11:19:28;5.88;;;2.90;;
16954;SDS011;8594;52.052;8.354;2022-08-24T11:21:59;9.35;;;3.08;;
16954;SDS011;8594;52.052;8.354;2022-08-24T11:24:30;5.97;;;3.03;;
16954;SDS011;8594;52.052;8.354;2022-08-24T11:27:16;8.40;;;3.10;;
16954;SDS011;8594;52.052;8.354;2022-08-24T11:29:59;4.68;;;2.80;;
16954;SDS011;8594;52.052;8.354;2022-08-24T11:32:40;5.93;;;2.90;;
16954;SDS011;8594;52.052;8.354;2022-08-24T11:35:17;6.85;;;3.30;;
16954;SDS011;8594;52.052;8.354;2022-08-24T11:37:50;4.65;;;2.67;;
16954;SDS011;8594;52.052;8.354;2022-08-24T11:40:21;5.35;;;3.00;;
16954;SDS011;8594;52.052;8.354;2022-08-24T11:46:05;5.30;;;2.95;;
16954;SDS011;8594;52.052;8.354;2022-08-24T11:48:45;7.70;;;2.90;;
16954;SDS011;8594;52.052;8.354;2022-08-24T11:51:29;7.57;;;3.15;;
16954;SDS011;8594;52.052;8.354;2022-08-24T11:54:10;4.82;;;2.88;;
16954;SDS011;8594;52.052;8.354;2022-08-24T11:56:49;7.15;;;3.25;;
16954;SDS011;8594;52.052;8.354;2022-08-24T11:59:33;9.45;;;3.40;;
16954;SDS011;8594;52.052;8.354;2022-08-24T12:02:19;7.43;;;3.22;;
16954;SDS011;8594;52.052;8.354;2022-08-24T12:04:54;9.55;;;3.40;;
16954;SDS011;8594;52.052;8.354;2022-08-24T12:07:34;9.20;;;3.03;;
16954;SDS011;8594;52.052;8.354;2022-08-24T12:10:22;6.93;;;3.25;;
16954;SDS011;8594;52.052;8.354;2022-08-24T12:13:04;8.13;;;3.63;;
16954;SDS011;8594;52.052;8.354;2022-08-24T12:15:41;7.68;;;3.38;;
16954;SDS011;8594;52.052;8.354;2022-08-24T12:18:19;9.77;;;3.85;;
16954;SDS011;8594;52.052;8.354;2022-08-24T12:20:55;7.75;;;3.25;;
16954;SDS011;8594;52.052;8.354;2022-08-24T12:23:25;6.47;;;3.67;;
16954;SDS011;8594;52.052;8.354;2022-08-24T12:25:59;6.25;;;3.05;;
16954;SDS011;8594;52.052;8.354;2022-08-24T12:28:34;8.82;;;3.53;;
16954;SDS011;8594;52.052;8.354;2022-08-24T12:31:06;8.65;;;3.25;;
16954;SDS011;8594;52.052;8.354;2022-08-24T12:33:42;7.45;;;3.28;;
16954;SDS011;8594;52.052;8.354;2022-08-24T12:36:17;8.45;;;3.15;;
16954;SDS011;8594;52.052;8.354;2022-08-24T12:38:56;7.82;;;2.97;;
16954;SDS011;8594;52.052;8.354;2022-08-24T12:41:35;4.63;;;3.00;;
16954;SDS011;8594;52.052;8.354;2022-08-24T12:44:09;4.43;;;3.10;;
16954;SDS011;8594;52.052;8.354;2022-08-24T12:46:40;3.88;;;3.13;;
16954;SDS011;8594;52.052;8.354;2022-08-24T12:49:13;5.40;;;3.15;;
16954;SDS011;8594;52.052;8.354;2022-08-24T12:51:52;12.38;;;3.05;;
16954;SDS011;8594;52.052;8.354;2022-08-24T12:54:49;7.72;;;3.15;;
16954;SDS011;8594;52.052;8.354;2022-08-24T12:57:51;7.70;;;3.38;;
16954;SDS011;8594;52.052;8.354;2022-08-24T13:00:32;5.07;;;3.15;;
16954;SDS011;8594;52.052;8.354;2022-08-24T13:03:05;7.68;;;2.83;;
16954;SDS011;8594;52.052;8.354;2022-08-24T13:05:49;10.18;;;2.60;;
16954;SDS011;8594;52.052;8.354;2022-08-24T13:08:32;5.18;;;2.70;;
16954;SDS011;8594;52.052;8.354;2022-08-24T13:11:04;8.20;;;2.58;;
16954;SDS011;8594;52.052;8.354;2022-08-24T13:13:40;9.48;;;3.05;;
16954;SDS011;8594;52.052;8.354;2022-08-24T13:19:15;4.35;;;2.85;;
16954;SDS011;8594;52.052;8.354;2022-08-24T13:22:00;7.35;;;3.22;;
16954;SDS011;8594;52.052;8.354;2022-08-24T13:25:24;5.90;;;3.13;;
16954;SDS011;8594;52.052;8.354;2022-08-24T13:37:11;6.72;;;3.20;;
16954;SDS011;8594;52.052;8.354;2022-08-24T13:39:48;5.70;;;3.03;;
16954;SDS011;8594;52.052;8.354;2022-08-24T13:45:36;4.90;;;2.83;;
16954;SDS011;8594;52.052;8.354;2022-08-24T13:48:14;6.85;;;2.95;;
16954;SDS011;8594;52.052;8.354;2022-08-24T13:51:04;4.30;;;2.80;;
16954;SDS011;8594;52.052;8.354;2022-08-24T13:53:57;4.65;;;3.00;;
16954;SDS011;8594;52.052;8.354;2022-08-24T13:56:44;4.97;;;2.40;;
16954;SDS011;8594;52.052;8.354;2022-08-24T13:59:37;3.95;;;2.63;;
16954;SDS011;8594;52.052;8.354;2022-08-24T14:02:29;7.00;;;2.88;;
16954;SDS011;8594;52.052;8.354;2022-08-24T14:05:11;6.32;;;3.03;;
16954;SDS011;8594;52.052;8.354;2022-08-24T14:07:53;6.93;;;2.95;;
16954;SDS011;8594;52.052;8.354;2022-08-24T14:10:43;8.80;;;2.95;;
16954;SDS011;8594;52.052;8.354;2022-08-24T14:13:29;9.15;;;3.13;;
16954;SDS011;8594;52.052;8.354;2022-08-24T14:16:19;5.25;;;2.83;;
16954;SDS011;8594;52.052;8.354;2022-08-24T14:19:19;6.75;;;2.92;;
16954;SDS011;8594;52.052;8.354;2022-08-24T14:21:58;6.15;;;2.80;;
16954;SDS011;8594;52.052;8.354;2022-08-24T14:24:38;4.88;;;2.78;;
16954;SDS011;8594;52.052;8.354;2022-08-24T14:27:20;5.57;;;2.47;;
16954;SDS011;8594;52.052;8.354;2022-08-24T14:33:17;4.80;;;3.00;;
16954;SDS011;8594;52.052;8.354;2022-08-24T14:36:02;5.30;;;2.67;;
16954;SDS011;8594;52.052;8.354;2022-08-24T14:41:42;4.15;;;2.90;;
16954;SDS011;8594;52.052;8.354;2022-08-24T14:47:30;6.75;;;3.08;;
16954;SDS011;8594;52.052;8.354;2022-08-24T14:50:11;9.63;;;3.08;;
16954;SDS011;8594;52.052;8.354;2022-08-24T14:52:50;6.65;;;3.08;;
16954;SDS011;8594;52.052;8.354;2022-08-24T14:55:33;4.35;;;2.47;;
16954;SDS011;8594;52.052;8.354;2022-08-24T15:04:20;4.22;;;2.70;;
16954;SDS011;8594;52.052;8.354;2022-08-24T15:07:09;8.73;;;3.03;;
16954;SDS011;8594;52.052;8.354;2022-08-24T15:09:53;3.75;;;2.50;;
16954;SDS011;8594;52.052;8.354;2022-08-24T15:15:10;5.22;;;2.85;;
16954;SDS011;8594;52.052;8.354;2022-08-24T15:17:52;4.35;;;2.92;;
16954;SDS011;8594;52.052;8.354;2022-08-24T15:20:36;4.72;;;2.70;;
16954;SDS011;8594;52.052;8.354;2022-08-24T15:23:15;4.25;;;2.78;;
16954;SDS011;8594;52.052;8.354;2022-08-24T15:25:52;5.43;;;2.70;;
16954;SDS011;8594;52.052;8.354;2022-08-24T15:28:25;8.55;;;2.85;;
16954;SDS011;8594;52.052;8.354;2022-08-24T15:30:58;8.05;;;3.00;;
16954;SDS011;8594;52.052;8.354;2022-08-24T15:33:32;5.65;;;3.22;;
16954;SDS011;8594;52.052;8.354;2022-08-24T15:36:17;6.22;;;2.70;;
16954;SDS011;8594;52.052;8.354;2022-08-24T15:38:45;7.25;;;2.90;;
16954;SDS011;8594;52.052;8.354;2022-08-24T15:41:13;4.70;;;2.63;;
16954;SDS011;8594;52.052;8.354;2022-08-24T15:43:45;5.32;;;2.97;;
16954;SDS011;8594;52.052;8.354;2022-08-24T15:46:19;6.18;;;2.83;;
16954;SDS011;8594;52.052;8.354;2022-08-24T15:48:53;4.63;;;2.85;;
16954;SDS011;8594;52.052;8.354;2022-08-24T15:51:36;6.57;;;2.83;;
16954;SDS011;8594;52.052;8.354;2022-08-24T15:54:14;4.55;;;2.80;;
16954;SDS011;8594;52.052;8.354;2022-08-24T15:56:56;4.30;;;2.85;;
16954;SDS011;8594;52.052;8.354;2022-08-24T15:59:27;4.93;;;2.65;;
16954;SDS011;8594;52.052;8.354;2022-08-24T16:02:19;5.25;;;2.83;;
16954;SDS011;8594;52.052;8.354;2022-08-24T16:05:09;4.05;;;2.75;;
16954;SDS011;8594;52.052;8.354;2022-08-24T16:07:58;9.05;;;2.92;;
16954;SDS011;8594;52.052;8.354;2022-08-24T16:10:39;8.07;;;2.97;;
16954;SDS011;8594;52.052;8.354;2022-08-24T16:13:18;3.90;;;2.80;;
16954;SDS011;8594;52.052;8.354;2022-08-24T16:15:55;6.72;;;2.90;;
16954;SDS011;8594;52.052;8.354;2022-08-24T16:18:41;4.70;;;2.83;;
16954;SDS011;8594;52.052;8.354;2022-08-24T16:21:16;4.95;;;2.80;;
16954;SDS011;8594;52.052;8.354;2022-08-24T16:23:54;5.45;;;2.65;;
16954;SDS011;8594;52.052;8.354;2022-08-24T16:26:29;4.78;;;2.55;;
16954;SDS011;8594;52.052;8.354;2022-08-24T16:28:58;4.32;;;2.60;;
16954;SDS011;8594;52.052;8.354;2022-08-24T16:34:21;3.80;;;2.50;;
16954;SDS011;8594;52.052;8.354;2022-08-24T16:36:56;6.53;;;2.60;;
16954;SDS011;8594;52.052;8.354;2022-08-24T16:39:24;2.72;;;2.40;;
16954;SDS011;8594;52.052;8.354;2022-08-24T16:41:52;5.57;;;2.80;;